sensor_id;sensor_type;location;lat;lon;timestamp;temperature;humidity
11647;DHT22;5880;52.342;9.662;2022-08-03T00:01:52;24.00;52.40
11647;DHT22;5880;52.342;9.662;2022-08-03T00:04:17;24.00;52.60
11647;DHT22;5880;52.342;9.662;2022-08-03T00:06:43;24.00;52.70
11647;DHT22;5880;52.342;9.662;2022-08-03T00:09:09;24.00;52.70
11647;DHT22;5880;52.342;9.662;2022-08-03T00:11:35;23.90;52.70
11647;DHT22;5880;52.342;9.662;2022-08-03T00:14:02;23.90;52.80
11647;DHT22;5880;52.342;9.662;2022-08-03T00:16:29;23.90;53.10
11647;DHT22;5880;52.342;9.662;2022-08-03T00:18:55;23.90;53.00
11647;DHT22;5880;52.342;9.662;2022-08-03T00:21:20;23.90;53.10
11647;DHT22;5880;52.342;9.662;2022-08-03T00:23:46;23.90;53.20
11647;DHT22;5880;52.342;9.662;2022-08-03T00:26:11;23.80;53.00
11647;DHT22;5880;52.342;9.662;2022-08-03T00:28:37;23.80;52.90
11647;DHT22;5880;52.342;9.662;2022-08-03T00:31:03;23.80;53.10
11647;DHT22;5880;52.342;9.662;2022-08-03T00:33:28;23.80;53.20
11647;DHT22;5880;52.342;9.662;2022-08-03T00:35:54;23.70;53.30
11647;DHT22;5880;52.342;9.662;2022-08-03T00:38:20;23.70;53.30
11647;DHT22;5880;52.342;9.662;2022-08-03T00:40:45;23.70;53.60
11647;DHT22;5880;52.342;9.662;2022-08-03T00:43:11;23.60;53.40
11647;DHT22;5880;52.342;9.662;2022-08-03T00:45:40;23.60;53.60
11647;DHT22;5880;52.342;9.662;2022-08-03T00:48:08;23.60;53.90
11647;DHT22;5880;52.342;9.662;2022-08-03T00:50:41;23.50;53.70
11647;DHT22;5880;52.342;9.662;2022-08-03T00:53:10;23.50;54.50
11647;DHT22;5880;52.342;9.662;2022-08-03T00:55:37;23.50;54.20
11647;DHT22;5880;52.342;9.662;2022-08-03T00:58:04;23.40;53.80
11647;DHT22;5880;52.342;9.662;2022-08-03T01:00:32;23.40;54.00
11647;DHT22;5880;52.342;9.662;2022-08-03T01:03:08;23.40;54.10
11647;DHT22;5880;52.342;9.662;2022-08-03T01:05:43;23.40;54.20
11647;DHT22;5880;52.342;9.662;2022-08-03T01:16:36;23.20;54.60
11647;DHT22;5880;52.342;9.662;2022-08-03T01:19:53;23.10;55.10
11647;DHT22;5880;52.342;9.662;2022-08-03T01:25:23;23.10;54.70
11647;DHT22;5880;52.342;9.662;2022-08-03T01:31:12;23.00;55.20
11647;DHT22;5880;52.342;9.662;2022-08-03T01:33:50;23.00;54.50
11647;DHT22;5880;52.342;9.662;2022-08-03T01:36:24;22.90;54.90
11647;DHT22;5880;52.342;9.662;2022-08-03T01:38:56;22.90;55.00
11647;DHT22;5880;52.342;9.662;2022-08-03T01:41:30;22.80;54.90
11647;DHT22;5880;52.342;9.662;2022-08-03T01:44:00;22.80;55.60
11647;DHT22;5880;52.342;9.662;2022-08-03T01:46:29;22.80;55.20
11647;DHT22;5880;52.342;9.662;2022-08-03T01:48:56;22.80;55.20
11647;DHT22;5880;52.342;9.662;2022-08-03T01:51:24;22.70;55.40
11647;DHT22;5880;52.342;9.662;2022-08-03T01:53:50;22.70;55.40
11647;DHT22;5880;52.342;9.662;2022-08-03T01:56:21;22.70;55.60
11647;DHT22;5880;52.342;9.662;2022-08-03T01:58:50;22.70;56.00
11647;DHT22;5880;52.342;9.662;2022-08-03T02:01:20;22.60;55.50
11647;DHT22;5880;52.342;9.662;2022-08-03T02:03:48;22.60;55.80
11647;DHT22;5880;52.342;9.662;2022-08-03T02:06:15;22.60;55.90
11647;DHT22;5880;52.342;9.662;2022-08-03T02:08:44;22.60;56.00
11647;DHT22;5880;52.342;9.662;2022-08-03T02:11:12;22.60;56.10
11647;DHT22;5880;52.342;9.662;2022-08-03T02:13:39;22.70;56.10
11647;DHT22;5880;52.342;9.662;2022-08-03T02:16:06;22.60;56.20
11647;DHT22;5880;52.342;9.662;2022-08-03T02:18:33;22.60;56.20
11647;DHT22;5880;52.342;9.662;2022-08-03T02:21:01;22.60;56.30
11647;DHT22;5880;52.342;9.662;2022-08-03T02:23:29;22.60;56.40
11647;DHT22;5880;52.342;9.662;2022-08-03T02:25:57;22.60;56.10
11647;DHT22;5880;52.342;9.662;2022-08-03T02:28:34;22.60;56.50
11647;DHT22;5880;52.342;9.662;2022-08-03T02:31:04;22.60;56.90
11647;DHT22;5880;52.342;9.662;2022-08-03T02:33:42;22.60;56.80
11647;DHT22;5880;52.342;9.662;2022-08-03T02:36:13;22.60;57.30
11647;DHT22;5880;52.342;9.662;2022-08-03T02:38:48;22.60;56.60
11647;DHT22;5880;52.342;9.662;2022-08-03T02:41:25;22.60;56.90
11647;DHT22;5880;52.342;9.662;2022-08-03T02:43:56;22.60;56.90
11647;DHT22;5880;52.342;9.662;2022-08-03T02:46:30;22.60;56.80
11647;DHT22;5880;52.342;9.662;2022-08-03T02:49:00;22.50;56.90
11647;DHT22;5880;52.342;9.662;2022-08-03T02:51:30;22.60;56.90
11647;DHT22;5880;52.342;9.662;2022-08-03T02:53:59;22.50;56.90
11647;DHT22;5880;52.342;9.662;2022-08-03T02:56:27;22.50;56.90
11647;DHT22;5880;52.342;9.662;2022-08-03T02:58:55;22.50;56.70
11647;DHT22;5880;52.342;9.662;2022-08-03T03:01:23;22.40;56.80
11647;DHT22;5880;52.342;9.662;2022-08-03T03:03:52;22.40;56.90
11647;DHT22;5880;52.342;9.662;2022-08-03T03:06:21;22.40;57.00
11647;DHT22;5880;52.342;9.662;2022-08-03T03:08:47;22.40;57.00
11647;DHT22;5880;52.342;9.662;2022-08-03T03:11:14;22.30;57.00
11647;DHT22;5880;52.342;9.662;2022-08-03T03:13:44;22.30;57.30
11647;DHT22;5880;52.342;9.662;2022-08-03T03:16:12;22.30;57.30
11647;DHT22;5880;52.342;9.662;2022-08-03T03:18:40;22.30;58.10
11647;DHT22;5880;52.342;9.662;2022-08-03T03:21:09;22.20;57.30
11647;DHT22;5880;52.342;9.662;2022-08-03T03:23:36;22.20;57.40
11647;DHT22;5880;52.342;9.662;2022-08-03T03:26:04;22.20;57.60
11647;DHT22;5880;52.342;9.662;2022-08-03T03:28:31;22.20;57.50
11647;DHT22;5880;52.342;9.662;2022-08-03T03:30:58;22.20;57.50
11647;DHT22;5880;52.342;9.662;2022-08-03T03:33:25;22.20;57.70
11647;DHT22;5880;52.342;9.662;2022-08-03T03:35:51;22.10;57.70
11647;DHT22;5880;52.342;9.662;2022-08-03T03:38:18;22.10;57.70
11647;DHT22;5880;52.342;9.662;2022-08-03T03:40:44;22.10;57.80
11647;DHT22;5880;52.342;9.662;2022-08-03T03:43:11;22.10;57.90
11647;DHT22;5880;52.342;9.662;2022-08-03T03:45:39;22.00;57.90
11647;DHT22;5880;52.342;9.662;2022-08-03T03:48:06;22.00;58.30
11647;DHT22;5880;52.342;9.662;2022-08-03T03:50:34;22.00;58.10
11647;DHT22;5880;52.342;9.662;2022-08-03T03:53:01;22.10;58.40
11647;DHT22;5880;52.342;9.662;2022-08-03T03:55:27;22.00;58.20
11647;DHT22;5880;52.342;9.662;2022-08-03T03:57:53;22.00;58.20
11647;DHT22;5880;52.342;9.662;2022-08-03T04:00:21;22.00;58.20
11647;DHT22;5880;52.342;9.662;2022-08-03T04:02:47;22.00;58.70
11647;DHT22;5880;52.342;9.662;2022-08-03T04:05:13;22.00;58.40
11647;DHT22;5880;52.342;9.662;2022-08-03T04:08:16;22.00;58.50
11647;DHT22;5880;52.342;9.662;2022-08-03T04:11:30;22.00;58.50
11647;DHT22;5880;52.342;9.662;2022-08-03T04:14:05;22.00;59.40
11647;DHT22;5880;52.342;9.662;2022-08-03T04:16:36;22.00;58.40
11647;DHT22;5880;52.342;9.662;2022-08-03T04:19:09;22.00;58.80
11647;DHT22;5880;52.342;9.662;2022-08-03T04:21:41;22.00;58.90
11647;DHT22;5880;52.342;9.662;2022-08-03T04:24:10;22.00;59.00
11647;DHT22;5880;52.342;9.662;2022-08-03T04:26:40;22.00;59.50
11647;DHT22;5880;52.342;9.662;2022-08-03T04:29:10;22.00;58.90
11647;DHT22;5880;52.342;9.662;2022-08-03T04:31:37;22.00;58.90
11647;DHT22;5880;52.342;9.662;2022-08-03T04:34:04;22.00;59.00
11647;DHT22;5880;52.342;9.662;2022-08-03T04:36:32;22.00;59.10
11647;DHT22;5880;52.342;9.662;2022-08-03T04:39:09;22.10;59.50
11647;DHT22;5880;52.342;9.662;2022-08-03T04:41:41;22.10;59.70
11647;DHT22;5880;52.342;9.662;2022-08-03T04:44:09;22.10;59.60
11647;DHT22;5880;52.342;9.662;2022-08-03T04:46:37;22.10;59.80
11647;DHT22;5880;52.342;9.662;2022-08-03T04:49:05;22.20;60.00
11647;DHT22;5880;52.342;9.662;2022-08-03T04:51:32;22.20;60.00
11647;DHT22;5880;52.342;9.662;2022-08-03T04:53:59;22.20;59.60
11647;DHT22;5880;52.342;9.662;2022-08-03T04:56:26;22.30;60.00
11647;DHT22;5880;52.342;9.662;2022-08-03T04:58:52;22.30;60.00
11647;DHT22;5880;52.342;9.662;2022-08-03T05:01:18;22.40;60.20
11647;DHT22;5880;52.342;9.662;2022-08-03T05:03:48;22.40;60.10
11647;DHT22;5880;52.342;9.662;2022-08-03T05:06:13;22.50;60.00
11647;DHT22;5880;52.342;9.662;2022-08-03T05:08:39;22.50;60.10
11647;DHT22;5880;52.342;9.662;2022-08-03T05:11:04;22.60;59.80
11647;DHT22;5880;52.342;9.662;2022-08-03T05:13:30;22.70;59.90
11647;DHT22;5880;52.342;9.662;2022-08-03T05:15:56;22.70;60.00
11647;DHT22;5880;52.342;9.662;2022-08-03T05:18:22;22.80;59.80
11647;DHT22;5880;52.342;9.662;2022-08-03T05:20:48;22.90;60.00
11647;DHT22;5880;52.342;9.662;2022-08-03T05:23:13;23.00;59.70
11647;DHT22;5880;52.342;9.662;2022-08-03T05:25:39;23.10;60.00
11647;DHT22;5880;52.342;9.662;2022-08-03T05:28:05;23.20;59.80
11647;DHT22;5880;52.342;9.662;2022-08-03T05:30:31;23.40;59.70
11647;DHT22;5880;52.342;9.662;2022-08-03T05:32:56;23.50;59.80
11647;DHT22;5880;52.342;9.662;2022-08-03T05:35:22;23.50;59.50
11647;DHT22;5880;52.342;9.662;2022-08-03T05:37:49;23.70;59.40
11647;DHT22;5880;52.342;9.662;2022-08-03T05:40:15;23.80;59.20
11647;DHT22;5880;52.342;9.662;2022-08-03T05:42:41;23.90;59.20
11647;DHT22;5880;52.342;9.662;2022-08-03T05:45:07;24.00;58.90
11647;DHT22;5880;52.342;9.662;2022-08-03T05:47:40;24.10;58.60
11647;DHT22;5880;52.342;9.662;2022-08-03T05:50:11;24.20;58.60
11647;DHT22;5880;52.342;9.662;2022-08-03T05:52:38;24.30;58.70
11647;DHT22;5880;52.342;9.662;2022-08-03T05:55:06;24.30;58.50
11647;DHT22;5880;52.342;9.662;2022-08-03T05:57:33;24.40;58.70
11647;DHT22;5880;52.342;9.662;2022-08-03T06:00:00;24.50;58.90
11647;DHT22;5880;52.342;9.662;2022-08-03T06:02:26;24.60;58.80
11647;DHT22;5880;52.342;9.662;2022-08-03T06:04:52;24.60;58.70
11647;DHT22;5880;52.342;9.662;2022-08-03T06:07:18;24.80;58.60
11647;DHT22;5880;52.342;9.662;2022-08-03T06:09:43;24.80;58.50
11647;DHT22;5880;52.342;9.662;2022-08-03T06:12:09;24.90;58.40
11647;DHT22;5880;52.342;9.662;2022-08-03T06:14:35;24.90;58.40
11647;DHT22;5880;52.342;9.662;2022-08-03T06:17:00;25.00;58.10
11647;DHT22;5880;52.342;9.662;2022-08-03T06:19:26;25.00;57.80
11647;DHT22;5880;52.342;9.662;2022-08-03T06:21:52;25.10;57.60
11647;DHT22;5880;52.342;9.662;2022-08-03T06:24:17;25.20;57.40
11647;DHT22;5880;52.342;9.662;2022-08-03T06:26:43;25.30;57.30
11647;DHT22;5880;52.342;9.662;2022-08-03T06:29:09;25.40;57.30
11647;DHT22;5880;52.342;9.662;2022-08-03T06:31:34;25.40;57.10
11647;DHT22;5880;52.342;9.662;2022-08-03T06:34:02;25.50;56.70
11647;DHT22;5880;52.342;9.662;2022-08-03T06:36:28;25.60;56.50
11647;DHT22;5880;52.342;9.662;2022-08-03T06:38:56;25.60;56.30
11647;DHT22;5880;52.342;9.662;2022-08-03T06:41:23;25.70;56.40
11647;DHT22;5880;52.342;9.662;2022-08-03T06:43:52;25.80;56.50
11647;DHT22;5880;52.342;9.662;2022-08-03T06:46:19;25.90;56.20
11647;DHT22;5880;52.342;9.662;2022-08-03T06:48:44;26.00;56.80
11647;DHT22;5880;52.342;9.662;2022-08-03T06:51:10;26.20;56.30
11647;DHT22;5880;52.342;9.662;2022-08-03T06:53:37;26.20;56.30
11647;DHT22;5880;52.342;9.662;2022-08-03T06:56:06;26.30;56.30
11647;DHT22;5880;52.342;9.662;2022-08-03T06:58:33;26.40;55.90
11647;DHT22;5880;52.342;9.662;2022-08-03T07:00:59;26.50;55.70
11647;DHT22;5880;52.342;9.662;2022-08-03T07:03:25;26.60;55.20
11647;DHT22;5880;52.342;9.662;2022-08-03T07:05:50;26.60;54.90
11647;DHT22;5880;52.342;9.662;2022-08-03T07:08:17;26.70;54.70
11647;DHT22;5880;52.342;9.662;2022-08-03T07:10:43;26.80;54.60
11647;DHT22;5880;52.342;9.662;2022-08-03T07:13:10;26.90;53.90
11647;DHT22;5880;52.342;9.662;2022-08-03T07:15:36;27.00;54.20
11647;DHT22;5880;52.342;9.662;2022-08-03T07:18:02;27.00;53.70
11647;DHT22;5880;52.342;9.662;2022-08-03T07:20:28;27.10;53.20
11647;DHT22;5880;52.342;9.662;2022-08-03T07:22:54;27.10;53.00
11647;DHT22;5880;52.342;9.662;2022-08-03T07:25:20;27.20;52.50
11647;DHT22;5880;52.342;9.662;2022-08-03T07:27:46;27.40;52.50
11647;DHT22;5880;52.342;9.662;2022-08-03T07:30:13;27.40;51.60
11647;DHT22;5880;52.342;9.662;2022-08-03T07:32:40;27.50;52.20
11647;DHT22;5880;52.342;9.662;2022-08-03T07:35:07;27.50;51.10
11647;DHT22;5880;52.342;9.662;2022-08-03T07:37:34;27.70;51.30
11647;DHT22;5880;52.342;9.662;2022-08-03T07:40:00;27.80;51.00
11647;DHT22;5880;52.342;9.662;2022-08-03T07:42:27;27.90;50.50
11647;DHT22;5880;52.342;9.662;2022-08-03T07:44:54;28.00;50.40
11647;DHT22;5880;52.342;9.662;2022-08-03T07:47:23;28.10;50.30
11647;DHT22;5880;52.342;9.662;2022-08-03T07:49:51;28.20;49.80
11647;DHT22;5880;52.342;9.662;2022-08-03T07:52:17;28.30;49.90
11647;DHT22;5880;52.342;9.662;2022-08-03T07:55:01;28.50;50.30
11647;DHT22;5880;52.342;9.662;2022-08-03T07:57:27;28.60;49.60
11647;DHT22;5880;52.342;9.662;2022-08-03T07:59:53;28.70;49.40
11647;DHT22;5880;52.342;9.662;2022-08-03T08:02:19;28.90;48.80
11647;DHT22;5880;52.342;9.662;2022-08-03T08:04:44;29.00;48.30
11647;DHT22;5880;52.342;9.662;2022-08-03T08:07:10;29.10;47.90
11647;DHT22;5880;52.342;9.662;2022-08-03T08:09:36;29.10;47.70
11647;DHT22;5880;52.342;9.662;2022-08-03T08:12:01;29.20;47.80
11647;DHT22;5880;52.342;9.662;2022-08-03T08:14:27;29.30;47.80
11647;DHT22;5880;52.342;9.662;2022-08-03T08:16:54;29.30;47.60
11647;DHT22;5880;52.342;9.662;2022-08-03T08:19:19;29.40;47.40
11647;DHT22;5880;52.342;9.662;2022-08-03T08:21:45;29.60;47.00
11647;DHT22;5880;52.342;9.662;2022-08-03T08:24:10;29.60;46.50
11647;DHT22;5880;52.342;9.662;2022-08-03T08:26:36;29.60;46.00
11647;DHT22;5880;52.342;9.662;2022-08-03T08:29:02;29.70;45.70
11647;DHT22;5880;52.342;9.662;2022-08-03T08:31:28;29.70;45.30
11647;DHT22;5880;52.342;9.662;2022-08-03T08:33:54;29.70;45.30
11647;DHT22;5880;52.342;9.662;2022-08-03T08:36:20;29.80;45.10
11647;DHT22;5880;52.342;9.662;2022-08-03T08:38:46;29.90;45.00
11647;DHT22;5880;52.342;9.662;2022-08-03T08:41:13;29.90;44.60
11647;DHT22;5880;52.342;9.662;2022-08-03T08:43:40;29.90;44.40
11647;DHT22;5880;52.342;9.662;2022-08-03T08:46:08;30.00;45.30
11647;DHT22;5880;52.342;9.662;2022-08-03T08:48:39;30.00;44.50
11647;DHT22;5880;52.342;9.662;2022-08-03T08:51:08;30.00;44.00
11647;DHT22;5880;52.342;9.662;2022-08-03T08:53:36;30.00;44.10
11647;DHT22;5880;52.342;9.662;2022-08-03T08:56:06;30.00;44.20
11647;DHT22;5880;52.342;9.662;2022-08-03T08:58:36;30.10;43.70
11647;DHT22;5880;52.342;9.662;2022-08-03T09:01:06;30.10;43.20
11647;DHT22;5880;52.342;9.662;2022-08-03T09:03:32;30.10;43.60
11647;DHT22;5880;52.342;9.662;2022-08-03T09:05:59;30.10;43.30
11647;DHT22;5880;52.342;9.662;2022-08-03T09:08:27;30.20;42.80
11647;DHT22;5880;52.342;9.662;2022-08-03T09:10:54;30.20;42.30
11647;DHT22;5880;52.342;9.662;2022-08-03T09:13:20;30.30;42.90
11647;DHT22;5880;52.342;9.662;2022-08-03T09:15:45;30.30;42.70
11647;DHT22;5880;52.342;9.662;2022-08-03T09:18:11;30.30;43.00
11647;DHT22;5880;52.342;9.662;2022-08-03T09:20:39;30.40;42.60
11647;DHT22;5880;52.342;9.662;2022-08-03T09:23:07;30.40;42.20
11647;DHT22;5880;52.342;9.662;2022-08-03T09:25:40;30.40;41.50
11647;DHT22;5880;52.342;9.662;2022-08-03T09:28:10;30.50;41.10
11647;DHT22;5880;52.342;9.662;2022-08-03T09:30:42;30.60;41.80
11647;DHT22;5880;52.342;9.662;2022-08-03T09:33:13;30.60;41.30
11647;DHT22;5880;52.342;9.662;2022-08-03T09:35:46;30.60;40.30
11647;DHT22;5880;52.342;9.662;2022-08-03T09:38:19;30.70;40.70
11647;DHT22;5880;52.342;9.662;2022-08-03T09:40:51;30.80;40.10
11647;DHT22;5880;52.342;9.662;2022-08-03T09:43:17;30.80;41.00
11647;DHT22;5880;52.342;9.662;2022-08-03T09:45:44;30.90;40.60
11647;DHT22;5880;52.342;9.662;2022-08-03T09:51:03;31.00;40.20
11647;DHT22;5880;52.342;9.662;2022-08-03T09:53:29;31.00;40.70
11647;DHT22;5880;52.342;9.662;2022-08-03T09:55:58;31.00;40.80
11647;DHT22;5880;52.342;9.662;2022-08-03T09:58:29;31.10;40.40
11647;DHT22;5880;52.342;9.662;2022-08-03T10:00:58;31.10;40.70
11647;DHT22;5880;52.342;9.662;2022-08-03T10:03:28;31.20;40.50
11647;DHT22;5880;52.342;9.662;2022-08-03T10:05:55;31.30;40.10
11647;DHT22;5880;52.342;9.662;2022-08-03T10:08:21;31.30;40.20
11647;DHT22;5880;52.342;9.662;2022-08-03T10:10:49;31.30;39.70
11647;DHT22;5880;52.342;9.662;2022-08-03T10:13:19;31.40;39.60
11647;DHT22;5880;52.342;9.662;2022-08-03T10:15:45;31.40;39.40
11647;DHT22;5880;52.342;9.662;2022-08-03T10:18:11;31.40;38.80
11647;DHT22;5880;52.342;9.662;2022-08-03T10:20:44;31.40;38.90
11647;DHT22;5880;52.342;9.662;2022-08-03T10:23:16;31.50;38.60
11647;DHT22;5880;52.342;9.662;2022-08-03T10:25:45;31.50;38.40
11647;DHT22;5880;52.342;9.662;2022-08-03T10:28:16;31.60;38.60
11647;DHT22;5880;52.342;9.662;2022-08-03T10:30:49;31.60;38.60
11647;DHT22;5880;52.342;9.662;2022-08-03T10:35:55;31.70;38.30
11647;DHT22;5880;52.342;9.662;2022-08-03T10:38:29;31.70;38.30
11647;DHT22;5880;52.342;9.662;2022-08-03T10:41:00;31.80;37.80
11647;DHT22;5880;52.342;9.662;2022-08-03T10:43:33;31.90;38.30
11647;DHT22;5880;52.342;9.662;2022-08-03T10:46:06;31.90;37.50
11647;DHT22;5880;52.342;9.662;2022-08-03T10:48:34;31.90;37.60
11647;DHT22;5880;52.342;9.662;2022-08-03T10:51:00;32.00;38.10
11647;DHT22;5880;52.342;9.662;2022-08-03T10:53:36;32.00;38.30
11647;DHT22;5880;52.342;9.662;2022-08-03T11:02:12;32.30;37.30
11647;DHT22;5880;52.342;9.662;2022-08-03T11:04:39;32.30;37.80
11647;DHT22;5880;52.342;9.662;2022-08-03T11:09:42;32.40;36.60
11647;DHT22;5880;52.342;9.662;2022-08-03T11:12:26;32.50;37.10
11647;DHT22;5880;52.342;9.662;2022-08-03T11:14:55;32.50;36.30
11647;DHT22;5880;52.342;9.662;2022-08-03T11:17:22;32.50;36.90
11647;DHT22;5880;52.342;9.662;2022-08-03T11:19:52;32.60;36.80
11647;DHT22;5880;52.342;9.662;2022-08-03T11:22:19;32.60;36.70
11647;DHT22;5880;52.342;9.662;2022-08-03T11:30:04;32.70;36.20
11647;DHT22;5880;52.342;9.662;2022-08-03T11:35:19;32.80;35.80
11647;DHT22;5880;52.342;9.662;2022-08-03T11:46:09;33.00;35.00
11647;DHT22;5880;52.342;9.662;2022-08-03T11:48:44;33.10;34.90
11647;DHT22;5880;52.342;9.662;2022-08-03T11:53:52;33.10;34.70
11647;DHT22;5880;52.342;9.662;2022-08-03T11:56:18;33.10;34.80
11647;DHT22;5880;52.342;9.662;2022-08-03T11:58:53;33.10;34.50
11647;DHT22;5880;52.342;9.662;2022-08-03T12:01:22;33.20;34.70
11647;DHT22;5880;52.342;9.662;2022-08-03T12:03:50;33.20;34.70
11647;DHT22;5880;52.342;9.662;2022-08-03T12:06:17;33.10;34.70
11647;DHT22;5880;52.342;9.662;2022-08-03T12:08:44;33.10;35.00
11647;DHT22;5880;52.342;9.662;2022-08-03T12:11:12;33.10;34.80
11647;DHT22;5880;52.342;9.662;2022-08-03T12:13:47;33.20;34.70
11647;DHT22;5880;52.342;9.662;2022-08-03T12:16:22;33.20;34.50
11647;DHT22;5880;52.342;9.662;2022-08-03T12:19:00;33.20;34.30
11647;DHT22;5880;52.342;9.662;2022-08-03T12:21:28;33.20;34.60
11647;DHT22;5880;52.342;9.662;2022-08-03T12:23:59;33.20;34.60
11647;DHT22;5880;52.342;9.662;2022-08-03T12:26:27;33.30;33.60
11647;DHT22;5880;52.342;9.662;2022-08-03T12:28:54;33.20;33.70
11647;DHT22;5880;52.342;9.662;2022-08-03T12:31:20;33.30;34.30
11647;DHT22;5880;52.342;9.662;2022-08-03T12:34:00;33.10;34.40
11647;DHT22;5880;52.342;9.662;2022-08-03T12:36:32;33.10;34.00
11647;DHT22;5880;52.342;9.662;2022-08-03T12:39:05;33.10;34.40
11647;DHT22;5880;52.342;9.662;2022-08-03T12:41:38;33.20;34.40
11647;DHT22;5880;52.342;9.662;2022-08-03T12:44:07;33.20;34.50
11647;DHT22;5880;52.342;9.662;2022-08-03T12:46:39;33.30;34.40
11647;DHT22;5880;52.342;9.662;2022-08-03T12:49:10;33.30;34.20
11647;DHT22;5880;52.342;9.662;2022-08-03T12:54:07;33.40;34.10
11647;DHT22;5880;52.342;9.662;2022-08-03T12:56:34;33.40;33.90
11647;DHT22;5880;52.342;9.662;2022-08-03T12:59:23;33.50;33.60
11647;DHT22;5880;52.342;9.662;2022-08-03T13:01:53;33.50;32.90
11647;DHT22;5880;52.342;9.662;2022-08-03T13:04:29;33.50;33.40
11647;DHT22;5880;52.342;9.662;2022-08-03T13:07:02;33.60;32.60
11647;DHT22;5880;52.342;9.662;2022-08-03T13:09:43;33.70;33.20
11647;DHT22;5880;52.342;9.662;2022-08-03T13:12:21;33.80;32.80
11647;DHT22;5880;52.342;9.662;2022-08-03T13:14:55;33.80;32.60
11647;DHT22;5880;52.342;9.662;2022-08-03T13:17:22;33.90;31.80
11647;DHT22;5880;52.342;9.662;2022-08-03T13:19:49;33.90;32.60
11647;DHT22;5880;52.342;9.662;2022-08-03T13:22:25;33.90;32.20
11647;DHT22;5880;52.342;9.662;2022-08-03T13:24:55;33.90;31.70
11647;DHT22;5880;52.342;9.662;2022-08-03T13:27:22;34.00;31.70
11647;DHT22;5880;52.342;9.662;2022-08-03T13:29:49;34.00;31.50
11647;DHT22;5880;52.342;9.662;2022-08-03T13:32:15;34.10;31.60
11647;DHT22;5880;52.342;9.662;2022-08-03T13:34:41;34.10;31.90
11647;DHT22;5880;52.342;9.662;2022-08-03T13:37:07;34.10;31.00
11647;DHT22;5880;52.342;9.662;2022-08-03T13:39:32;34.10;31.10
11647;DHT22;5880;52.342;9.662;2022-08-03T13:41:58;34.10;31.40
11647;DHT22;5880;52.342;9.662;2022-08-03T13:44:24;34.10;31.40
11647;DHT22;5880;52.342;9.662;2022-08-03T13:46:50;34.10;31.60
11647;DHT22;5880;52.342;9.662;2022-08-03T13:49:15;34.10;32.10
11647;DHT22;5880;52.342;9.662;2022-08-03T13:51:41;34.10;32.00
11647;DHT22;5880;52.342;9.662;2022-08-03T13:54:07;34.10;31.60
11647;DHT22;5880;52.342;9.662;2022-08-03T13:56:33;34.20;31.80
11647;DHT22;5880;52.342;9.662;2022-08-03T13:58:59;34.20;31.90
11647;DHT22;5880;52.342;9.662;2022-08-03T14:01:25;34.20;31.90
11647;DHT22;5880;52.342;9.662;2022-08-03T14:03:51;34.20;32.10
11647;DHT22;5880;52.342;9.662;2022-08-03T14:06:22;34.20;31.60
11647;DHT22;5880;52.342;9.662;2022-08-03T14:08:49;34.30;31.20
11647;DHT22;5880;52.342;9.662;2022-08-03T14:11:16;34.30;31.20
11647;DHT22;5880;52.342;9.662;2022-08-03T14:13:43;34.30;31.30
11647;DHT22;5880;52.342;9.662;2022-08-03T14:16:09;34.30;31.50
11647;DHT22;5880;52.342;9.662;2022-08-03T14:18:35;34.40;31.50
11647;DHT22;5880;52.342;9.662;2022-08-03T14:21:03;34.30;31.30
11647;DHT22;5880;52.342;9.662;2022-08-03T14:23:30;34.40;31.30
11647;DHT22;5880;52.342;9.662;2022-08-03T14:25:56;34.50;31.60
11647;DHT22;5880;52.342;9.662;2022-08-03T14:28:22;34.50;31.30
11647;DHT22;5880;52.342;9.662;2022-08-03T14:30:49;34.50;30.90
11647;DHT22;5880;52.342;9.662;2022-08-03T14:33:16;34.50;31.60
11647;DHT22;5880;52.342;9.662;2022-08-03T14:35:42;34.50;30.90
11647;DHT22;5880;52.342;9.662;2022-08-03T14:38:07;34.50;31.20
11647;DHT22;5880;52.342;9.662;2022-08-03T14:40:33;34.50;31.20
11647;DHT22;5880;52.342;9.662;2022-08-03T14:42:59;34.50;31.10
11647;DHT22;5880;52.342;9.662;2022-08-03T14:45:24;34.50;31.20
11647;DHT22;5880;52.342;9.662;2022-08-03T14:47:50;34.60;31.20
11647;DHT22;5880;52.342;9.662;2022-08-03T14:50:16;34.60;31.10
11647;DHT22;5880;52.342;9.662;2022-08-03T14:52:41;34.60;31.30
11647;DHT22;5880;52.342;9.662;2022-08-03T14:55:07;34.60;31.00
11647;DHT22;5880;52.342;9.662;2022-08-03T14:57:33;34.60;31.20
11647;DHT22;5880;52.342;9.662;2022-08-03T14:59:59;34.70;30.90
11647;DHT22;5880;52.342;9.662;2022-08-03T15:02:25;34.60;31.10
11647;DHT22;5880;52.342;9.662;2022-08-03T15:04:53;34.60;30.60
11647;DHT22;5880;52.342;9.662;2022-08-03T15:07:18;34.60;30.40
11647;DHT22;5880;52.342;9.662;2022-08-03T15:09:44;34.60;30.60
11647;DHT22;5880;52.342;9.662;2022-08-03T15:12:10;34.60;30.80
11647;DHT22;5880;52.342;9.662;2022-08-03T15:14:36;34.60;30.80
11647;DHT22;5880;52.342;9.662;2022-08-03T15:17:01;34.60;30.90
11647;DHT22;5880;52.342;9.662;2022-08-03T15:19:27;34.60;30.70
11647;DHT22;5880;52.342;9.662;2022-08-03T15:21:53;34.60;30.70
11647;DHT22;5880;52.342;9.662;2022-08-03T15:24:18;34.60;30.60
11647;DHT22;5880;52.342;9.662;2022-08-03T15:26:44;34.60;30.40
11647;DHT22;5880;52.342;9.662;2022-08-03T15:29:10;34.60;30.30
11647;DHT22;5880;52.342;9.662;2022-08-03T15:31:35;34.60;30.20
11647;DHT22;5880;52.342;9.662;2022-08-03T15:34:01;34.60;30.30
11647;DHT22;5880;52.342;9.662;2022-08-03T15:36:27;34.60;30.40
11647;DHT22;5880;52.342;9.662;2022-08-03T15:38:52;34.50;30.20
11647;DHT22;5880;52.342;9.662;2022-08-03T15:41:18;34.50;30.50
11647;DHT22;5880;52.342;9.662;2022-08-03T15:43:44;34.50;30.30
11647;DHT22;5880;52.342;9.662;2022-08-03T15:46:11;34.50;30.10
11647;DHT22;5880;52.342;9.662;2022-08-03T15:48:38;34.60;30.00
11647;DHT22;5880;52.342;9.662;2022-08-03T15:51:05;34.50;30.10
11647;DHT22;5880;52.342;9.662;2022-08-03T15:53:32;34.50;30.10
11647;DHT22;5880;52.342;9.662;2022-08-03T15:55:58;34.50;30.10
11647;DHT22;5880;52.342;9.662;2022-08-03T15:58:25;34.60;29.90
11647;DHT22;5880;52.342;9.662;2022-08-03T16:00:55;34.70;29.80
11647;DHT22;5880;52.342;9.662;2022-08-03T16:03:23;34.50;29.90
11647;DHT22;5880;52.342;9.662;2022-08-03T16:05:50;34.50;29.40
11647;DHT22;5880;52.342;9.662;2022-08-03T16:08:16;34.50;29.70
11647;DHT22;5880;52.342;9.662;2022-08-03T16:10:41;34.40;29.50
11647;DHT22;5880;52.342;9.662;2022-08-03T16:13:07;34.40;29.80
11647;DHT22;5880;52.342;9.662;2022-08-03T16:15:33;34.40;29.70
11647;DHT22;5880;52.342;9.662;2022-08-03T16:17:59;34.40;29.90
11647;DHT22;5880;52.342;9.662;2022-08-03T16:20:24;34.30;29.90
11647;DHT22;5880;52.342;9.662;2022-08-03T16:22:50;34.30;29.80
11647;DHT22;5880;52.342;9.662;2022-08-03T16:25:17;34.30;30.00
11647;DHT22;5880;52.342;9.662;2022-08-03T16:27:43;34.20;30.10
11647;DHT22;5880;52.342;9.662;2022-08-03T16:30:10;34.10;30.30
11647;DHT22;5880;52.342;9.662;2022-08-03T16:32:37;34.00;30.30
11647;DHT22;5880;52.342;9.662;2022-08-03T16:35:05;34.00;30.20
11647;DHT22;5880;52.342;9.662;2022-08-03T16:37:31;34.00;30.50
11647;DHT22;5880;52.342;9.662;2022-08-03T16:39:56;33.90;30.00
11647;DHT22;5880;52.342;9.662;2022-08-03T16:42:22;33.90;30.10